createdAt,value
2018-09-13T00:01:27.024Z,9.60
2018-09-13T00:03:54.746Z,8.77
2018-09-13T00:06:22.400Z,10.00
2018-09-13T00:08:50.030Z,9.40
2018-09-13T00:11:17.726Z,9.45
2018-09-13T00:13:45.544Z,8.33
2018-09-13T00:16:13.272Z,8.00
2018-09-13T00:18:40.957Z,8.20
2018-09-13T00:21:08.772Z,8.60
2018-09-13T00:23:36.503Z,8.30
2018-09-13T00:26:04.166Z,7.97
2018-09-13T00:28:31.825Z,8.67
2018-09-13T00:30:59.603Z,8.30
2018-09-13T00:33:27.282Z,9.25
2018-09-13T00:35:55.131Z,8.03
2018-09-13T00:38:22.739Z,8.70
2018-09-13T00:40:50.411Z,9.73
2018-09-13T00:43:18.016Z,9.20
2018-09-13T00:45:45.649Z,8.93
2018-09-13T00:48:13.339Z,8.23
2018-09-13T00:50:40.965Z,9.33
2018-09-13T00:53:08.611Z,9.10
2018-09-13T00:55:36.239Z,9.27
2018-09-13T00:58:04.532Z,9.00
2018-09-13T01:00:32.947Z,9.90
2018-09-13T01:03:00.624Z,10.67
2018-09-13T01:05:28.418Z,9.60
2018-09-13T01:07:56.082Z,8.60
2018-09-13T01:10:23.731Z,9.23
2018-09-13T01:12:51.442Z,9.30
2018-09-13T01:15:19.122Z,9.80
2018-09-13T01:17:46.838Z,9.27
2018-09-13T01:20:14.528Z,9.13
2018-09-13T01:22:42.218Z,9.45
2018-09-13T01:25:09.892Z,10.33
2018-09-13T01:27:37.558Z,7.43
2018-09-13T01:30:05.530Z,8.90
2018-09-13T01:32:33.245Z,9.70
2018-09-13T01:35:01.070Z,9.60
2018-09-13T01:37:28.733Z,9.90
2018-09-13T01:39:56.419Z,10.53
2018-09-13T01:42:24.156Z,9.90
2018-09-13T01:44:51.825Z,9.90
2018-09-13T01:47:19.510Z,9.83
2018-09-13T01:49:47.168Z,9.70
2018-09-13T01:52:15.014Z,10.10
2018-09-13T01:54:42.642Z,10.17
2018-09-13T01:57:10.176Z,10.20
2018-09-13T01:59:37.829Z,9.35
2018-09-13T02:02:05.474Z,9.00
2018-09-13T02:04:33.143Z,9.00
2018-09-13T02:07:00.781Z,9.00
2018-09-13T02:09:28.445Z,9.40
2018-09-13T02:11:56.098Z,9.80
2018-09-13T02:14:23.749Z,9.13
2018-09-13T02:16:51.749Z,10.40
2018-09-13T02:19:19.399Z,11.00
2018-09-13T02:21:47.049Z,9.30
2018-09-13T02:24:14.627Z,10.03
2018-09-13T02:26:42.276Z,9.20
2018-09-13T02:29:10.067Z,9.68
2018-09-13T02:31:37.705Z,10.30
2018-09-13T02:34:05.393Z,9.67
2018-09-13T02:39:09.070Z,10.17
2018-09-13T02:41:36.774Z,10.00
2018-09-13T02:44:05.145Z,9.67
2018-09-13T02:46:32.745Z,11.13
2018-09-13T02:49:00.367Z,8.75
2018-09-13T02:51:27.985Z,9.93
2018-09-13T02:53:55.635Z,9.83
2018-09-13T02:56:23.237Z,9.53
2018-09-13T02:58:50.933Z,9.88
2018-09-13T03:01:18.577Z,9.60
2018-09-13T03:03:46.971Z,9.30
2018-09-13T03:06:14.661Z,9.37
2018-09-13T03:08:42.253Z,9.98
2018-09-13T03:11:09.914Z,9.30
2018-09-13T03:13:37.589Z,10.20
2018-09-13T03:16:05.211Z,10.17
2018-09-13T03:18:33.181Z,9.98
2018-09-13T03:21:00.825Z,9.53
2018-09-13T03:23:28.541Z,9.00
2018-09-13T03:25:56.324Z,9.53
2018-09-13T03:28:24.041Z,8.63
2018-09-13T03:30:51.732Z,10.50
2018-09-13T03:33:19.468Z,10.37
2018-09-13T03:35:47.590Z,8.47
2018-09-13T03:38:15.216Z,8.73
2018-09-13T03:40:42.892Z,9.07
2018-09-13T03:43:10.535Z,7.77
2018-09-13T03:45:38.217Z,8.90
2018-09-13T03:48:05.947Z,9.60
2018-09-13T03:50:33.618Z,8.37
2018-09-13T03:53:01.247Z,8.80
2018-09-13T03:55:28.967Z,8.37
2018-09-13T03:57:56.606Z,8.30
2018-09-13T04:00:24.290Z,7.60
2018-09-13T04:02:52.000Z,7.37
2018-09-13T04:05:19.620Z,6.97
2018-09-13T04:07:47.308Z,8.70
2018-09-13T04:10:15.205Z,6.80
2018-09-13T04:12:42.859Z,8.13
2018-09-13T04:15:10.517Z,7.70
2018-09-13T04:17:38.131Z,7.90
2018-09-13T04:20:06.020Z,8.23
2018-09-13T04:22:33.710Z,8.20
2018-09-13T04:25:01.350Z,7.57
2018-09-13T04:27:29.017Z,8.30
2018-09-13T04:29:57.113Z,6.07
2018-09-13T04:32:24.755Z,6.67
2018-09-13T04:34:52.390Z,7.20
2018-09-13T04:37:20.019Z,5.87
2018-09-13T04:39:48.998Z,7.10
2018-09-13T04:42:16.659Z,6.50
2018-09-13T04:44:44.294Z,6.35
2018-09-13T04:47:11.971Z,6.10
2018-09-13T04:49:39.723Z,6.70
2018-09-13T04:52:07.389Z,5.93
2018-09-13T04:54:35.075Z,7.10
2018-09-13T04:57:02.729Z,7.10
2018-09-13T04:59:30.431Z,5.70
2018-09-13T05:01:58.073Z,5.80
2018-09-13T05:04:25.833Z,6.80
2018-09-13T05:06:53.519Z,5.50
2018-09-13T05:09:21.258Z,7.00
2018-09-13T05:11:49.071Z,6.23
2018-09-13T05:14:16.716Z,6.17
2018-09-13T05:16:44.344Z,5.53
2018-09-13T05:19:12.035Z,6.00
2018-09-13T05:21:39.740Z,5.92
2018-09-13T05:24:07.391Z,5.40
2018-09-13T05:26:35.074Z,4.80
2018-09-13T05:29:02.806Z,5.67
2018-09-13T05:31:30.665Z,6.50
2018-09-13T05:33:58.430Z,6.03
2018-09-13T05:36:26.098Z,5.80
2018-09-13T05:38:53.812Z,6.10
2018-09-13T05:41:21.500Z,4.63
2018-09-13T05:43:49.228Z,6.17
2018-09-13T05:46:16.829Z,5.13
2018-09-13T05:48:44.695Z,4.80
2018-09-13T05:51:12.502Z,5.17
2018-09-13T05:53:40.204Z,5.70
2018-09-13T05:56:08.147Z,4.80
2018-09-13T05:58:36.058Z,5.10
2018-09-13T06:01:03.773Z,5.30
2018-09-13T06:03:31.471Z,5.50
2018-09-13T06:05:59.137Z,4.75
2018-09-13T06:08:26.829Z,5.77
2018-09-13T06:10:54.505Z,4.43
2018-09-13T06:13:22.143Z,5.37
2018-09-13T06:15:49.795Z,4.47
2018-09-13T06:18:17.411Z,6.20
2018-09-13T06:20:45.321Z,6.10
2018-09-13T06:23:13.033Z,6.23
2018-09-13T06:25:40.730Z,5.80
2018-09-13T06:28:08.780Z,5.30
2018-09-13T06:30:36.572Z,6.57
2018-09-13T06:33:04.318Z,6.40
2018-09-13T06:35:31.954Z,6.87
2018-09-13T06:37:59.676Z,5.63
2018-09-13T06:40:27.412Z,5.80
2018-09-13T06:42:55.179Z,7.80
2018-09-13T06:45:22.867Z,5.90
2018-09-13T06:47:50.515Z,6.35
2018-09-13T06:50:18.295Z,6.05
2018-09-13T06:52:45.947Z,6.37
2018-09-13T06:55:13.618Z,6.73
2018-09-13T06:57:42.323Z,7.80
2018-09-13T07:00:10.075Z,6.72
2018-09-13T07:02:37.878Z,8.20
2018-09-13T07:05:06.256Z,7.53
2018-09-13T07:07:33.986Z,7.27
2018-09-13T07:10:01.737Z,7.30
2018-09-13T07:12:29.506Z,7.22
2018-09-13T07:14:57.251Z,8.03
2018-09-13T07:17:25.016Z,8.20
2018-09-13T07:19:52.644Z,8.30
2018-09-13T07:22:22.454Z,7.93
2018-09-13T07:24:50.116Z,7.73
2018-09-13T07:27:17.885Z,7.65
2018-09-13T07:29:49.652Z,7.65
2018-09-13T07:32:17.366Z,8.10
2018-09-13T07:34:45.079Z,8.73
2018-09-13T07:37:12.860Z,8.30
2018-09-13T07:39:40.617Z,8.53
2018-09-13T07:42:08.310Z,8.47
2018-09-13T07:44:36.016Z,8.37
2018-09-13T07:47:03.734Z,9.50
2018-09-13T07:49:31.557Z,8.13
2018-09-13T07:51:59.228Z,8.10
2018-09-13T07:54:27.000Z,7.78
2018-09-13T07:56:54.647Z,9.30
2018-09-13T07:59:22.297Z,10.93
2018-09-13T08:01:50.021Z,12.63
2018-09-13T08:04:17.731Z,13.07
2018-09-13T08:06:45.937Z,13.68
2018-09-13T08:09:13.616Z,11.33
2018-09-13T08:11:41.788Z,11.47
2018-09-13T08:14:09.426Z,13.43
2018-09-13T08:16:37.177Z,11.75
2018-09-13T08:19:04.835Z,11.10
2018-09-13T08:21:32.522Z,9.60
2018-09-13T08:24:00.454Z,10.33
2018-09-13T08:26:28.135Z,10.50
2018-09-13T08:28:56.369Z,10.33
2018-09-13T08:31:24.284Z,10.27
2018-09-13T08:33:52.110Z,9.80
2018-09-13T08:36:20.037Z,12.33
2018-09-13T08:38:47.927Z,12.80
2018-09-13T08:41:15.602Z,12.37
2018-09-13T08:43:43.257Z,13.53
2018-09-13T08:46:10.965Z,12.23
2018-09-13T08:48:38.619Z,12.90
2018-09-13T08:51:06.329Z,11.25
2018-09-13T08:53:34.047Z,12.43
2018-09-13T08:56:01.716Z,11.60
2018-09-13T08:58:29.478Z,12.03
2018-09-13T09:00:57.622Z,11.27
2018-09-13T09:03:25.332Z,11.87
2018-09-13T09:05:53.024Z,12.73
2018-09-13T09:08:20.848Z,12.63
2018-09-13T09:10:48.593Z,11.27
2018-09-13T09:13:16.231Z,11.30
2018-09-13T09:15:44.020Z,12.03
2018-09-13T09:18:11.825Z,11.15
2018-09-13T09:20:39.546Z,10.58
2018-09-13T09:23:07.140Z,11.07
2018-09-13T09:25:34.890Z,11.53
2018-09-13T09:28:02.714Z,11.00
2018-09-13T09:30:30.534Z,11.40
2018-09-13T09:32:58.402Z,10.20
2018-09-13T09:35:26.086Z,11.23
2018-09-13T09:37:53.958Z,9.20
2018-09-13T09:40:21.669Z,10.13
2018-09-13T09:42:49.562Z,11.33
2018-09-13T09:45:17.376Z,11.03
2018-09-13T09:47:45.141Z,9.10
2018-09-13T09:50:12.880Z,9.10
2018-09-13T09:52:40.726Z,9.77
2018-09-13T09:55:08.434Z,9.07
2018-09-13T10:00:15.865Z,9.80
2018-09-13T10:02:43.888Z,10.07
2018-09-13T10:05:11.557Z,10.50
2018-09-13T10:07:39.325Z,9.90
2018-09-13T10:10:07.619Z,10.15
2018-09-13T10:12:35.362Z,10.00
2018-09-13T10:15:08.756Z,9.93
2018-09-13T10:17:42.187Z,10.10
2018-09-13T10:22:18.618Z,10.03
2018-09-13T10:24:52.062Z,11.80
2018-09-13T10:27:25.502Z,11.10
2018-09-13T10:29:58.936Z,10.73
2018-09-13T10:32:32.413Z,12.23
2018-09-13T10:35:05.718Z,11.73
2018-09-13T10:37:39.226Z,10.67
2018-09-13T10:40:12.731Z,8.67
2018-09-13T10:42:46.072Z,9.90
2018-09-13T10:45:19.448Z,11.23
2018-09-13T10:47:56.923Z,11.10
2018-09-13T10:50:24.640Z,10.37
2018-09-13T10:52:57.127Z,11.20
2018-09-13T10:55:24.981Z,9.93
2018-09-13T10:57:52.599Z,10.60
2018-09-13T11:00:20.254Z,11.88
2018-09-13T11:02:47.938Z,10.80
2018-09-13T11:05:15.752Z,11.37
2018-09-13T11:07:43.374Z,10.70
2018-09-13T11:10:11.072Z,11.63
2018-09-13T11:12:43.349Z,11.30
2018-09-13T11:15:16.840Z,10.40
2018-09-13T11:17:44.479Z,11.00
2018-09-13T11:20:12.361Z,11.15
2018-09-13T11:22:40.031Z,10.23
2018-09-13T11:25:07.680Z,10.78
2018-09-13T11:27:35.289Z,10.40
2018-09-13T11:30:03.053Z,10.93
2018-09-13T11:32:30.687Z,9.80
2018-09-13T11:34:58.427Z,10.25
2018-09-13T11:37:26.157Z,10.90
2018-09-13T11:39:54.016Z,9.97
2018-09-13T11:42:22.286Z,10.17
2018-09-13T11:44:50.049Z,11.53
2018-09-13T11:47:17.694Z,10.70
2018-09-13T11:49:45.304Z,10.47
2018-09-13T11:52:12.984Z,9.77
2018-09-13T11:54:40.682Z,10.13
2018-09-13T11:57:09.390Z,10.93
2018-09-13T11:59:37.120Z,11.30
2018-09-13T12:02:04.870Z,11.70
2018-09-13T12:04:32.423Z,11.93
2018-09-13T12:07:00.181Z,12.60
2018-09-13T12:09:27.772Z,13.13
2018-09-13T12:11:56.421Z,13.40
2018-09-13T12:14:24.034Z,13.35
2018-09-13T12:16:51.669Z,12.10
2018-09-13T12:19:19.313Z,14.00
2018-09-13T12:21:46.947Z,12.03
2018-09-13T12:24:17.282Z,15.25
2018-09-13T12:26:44.950Z,16.43
2018-09-13T12:29:12.750Z,13.38
2018-09-13T12:31:40.515Z,12.93
2018-09-13T12:34:08.154Z,11.70
2018-09-13T12:36:36.100Z,13.80
2018-09-13T12:39:07.339Z,14.73
2018-09-13T12:41:34.974Z,16.27
2018-09-13T12:44:02.606Z,13.40
2018-09-13T12:46:30.238Z,14.68
2018-09-13T12:48:57.968Z,14.10
2018-09-13T12:51:25.954Z,12.90
2018-09-13T12:53:53.588Z,13.00
2018-09-13T12:56:22.025Z,12.13
2018-09-13T12:58:50.273Z,12.90
2018-09-13T13:01:17.940Z,14.00
2018-09-13T13:03:45.682Z,14.30
2018-09-13T13:06:13.704Z,13.68
2018-09-13T13:08:41.423Z,12.75
2018-09-13T13:11:09.223Z,13.93
2018-09-13T13:13:37.015Z,12.70
2018-09-13T13:16:04.699Z,12.27
2018-09-13T13:18:32.424Z,13.53
2018-09-13T13:21:00.111Z,15.40
2018-09-13T13:23:27.766Z,16.00
2018-09-13T13:25:55.432Z,14.68
2018-09-13T13:28:23.149Z,15.30
2018-09-13T13:30:50.919Z,14.60
2018-09-13T13:33:18.612Z,14.60
2018-09-13T13:35:46.564Z,13.57
2018-09-13T13:38:14.313Z,19.83
2018-09-13T13:40:42.060Z,12.67
2018-09-13T13:43:09.733Z,11.73
2018-09-13T13:45:37.492Z,12.60
2018-09-13T13:48:06.674Z,12.90
2018-09-13T13:50:34.682Z,13.00
2018-09-13T13:53:04.215Z,12.27
2018-09-13T13:55:33.970Z,13.33
2018-09-13T13:58:04.085Z,12.40
2018-09-13T14:00:33.551Z,12.87
2018-09-13T14:03:01.254Z,13.60
2018-09-13T14:05:29.086Z,13.32
2018-09-13T14:07:56.714Z,14.23
2018-09-13T14:12:58.928Z,13.30
2018-09-13T14:15:26.631Z,14.70
2018-09-13T14:17:54.293Z,13.60
2018-09-13T14:20:22.138Z,14.03
2018-09-13T14:22:50.159Z,13.17
2018-09-13T14:25:18.063Z,13.03
2018-09-13T14:27:45.902Z,14.07
2018-09-13T14:30:13.691Z,13.55
2018-09-13T14:32:41.363Z,13.67
2018-09-13T14:35:09.135Z,13.07
2018-09-13T14:37:36.963Z,12.97
2018-09-13T14:40:04.646Z,12.00
2018-09-13T14:42:32.242Z,12.50
2018-09-13T14:44:59.935Z,14.25
2018-09-13T14:47:27.641Z,13.50
2018-09-13T14:49:55.416Z,12.53
2018-09-13T14:52:23.121Z,12.43
2018-09-13T14:54:50.774Z,11.20
2018-09-13T14:57:18.817Z,12.40
2018-09-13T14:59:46.698Z,10.97
2018-09-13T15:02:14.393Z,10.13
2018-09-13T15:04:42.356Z,9.53
2018-09-13T15:07:10.206Z,9.40
2018-09-13T15:09:38.046Z,8.27
2018-09-13T15:12:05.746Z,9.13
2018-09-13T15:14:33.405Z,9.50
2018-09-13T15:17:01.110Z,8.60
2018-09-13T15:19:28.915Z,9.50
2018-09-13T15:21:56.838Z,7.87
2018-09-13T15:24:25.056Z,9.33
2018-09-13T15:26:52.858Z,9.38
2018-09-13T15:29:20.478Z,7.72
2018-09-13T15:31:48.166Z,7.70
2018-09-13T15:34:15.946Z,8.90
2018-09-13T15:36:43.709Z,7.60
2018-09-13T15:39:12.646Z,8.90
2018-09-13T15:41:40.483Z,9.37
2018-09-13T15:44:08.298Z,8.67
2018-09-13T15:46:36.086Z,8.43
2018-09-13T15:49:04.000Z,9.63
2018-09-13T15:51:31.794Z,8.53
2018-09-13T15:54:00.282Z,9.63
2018-09-13T15:56:28.130Z,10.47
2018-09-13T15:58:55.977Z,10.57
2018-09-13T16:01:23.832Z,9.50
2018-09-13T16:03:51.787Z,10.60
2018-09-13T16:06:19.864Z,9.90
2018-09-13T16:08:47.704Z,8.87
2018-09-13T16:11:15.569Z,9.93
2018-09-13T16:13:43.303Z,10.00
2018-09-13T16:16:11.151Z,9.75
2018-09-13T16:18:38.954Z,9.88
2018-09-13T16:21:07.759Z,10.10
2018-09-13T16:23:35.618Z,9.60
2018-09-13T16:26:03.517Z,10.13
2018-09-13T16:28:31.467Z,9.00
2018-09-13T16:30:59.251Z,9.60
2018-09-13T16:33:27.123Z,10.40
2018-09-13T16:35:55.689Z,9.53
2018-09-13T16:38:30.312Z,10.47
2018-09-13T16:41:04.909Z,11.23
2018-09-13T16:43:38.544Z,9.60
2018-09-13T16:46:08.149Z,9.20
2018-09-13T16:48:42.943Z,10.27
2018-09-13T16:51:11.187Z,9.70
2018-09-13T16:53:39.421Z,11.37
2018-09-13T16:56:08.318Z,11.47
2018-09-13T16:58:36.868Z,16.70
2018-09-13T17:01:04.876Z,14.10
2018-09-13T17:03:32.679Z,12.30
2018-09-13T17:06:01.215Z,10.63
2018-09-13T17:08:29.060Z,25.03
2018-09-13T17:10:56.986Z,12.80
2018-09-13T17:13:24.894Z,10.40
2018-09-13T17:15:52.840Z,11.00
2018-09-13T17:18:20.883Z,11.97
2018-09-13T17:20:48.707Z,13.30
2018-09-13T17:23:16.671Z,10.87
2018-09-13T17:25:44.533Z,11.77
2018-09-13T17:28:12.429Z,11.80
2018-09-13T17:30:40.297Z,11.03
2018-09-13T17:33:08.207Z,10.80
2018-09-13T17:35:36.145Z,12.40
2018-09-13T17:38:04.147Z,12.67
2018-09-13T17:40:32.074Z,10.90
2018-09-13T17:42:59.940Z,11.83
2018-09-13T17:45:27.869Z,10.33
2018-09-13T17:47:55.798Z,11.30
2018-09-13T17:50:23.703Z,11.53
2018-09-13T17:52:51.718Z,13.13
2018-09-13T17:55:20.851Z,10.37
2018-09-13T17:57:49.026Z,9.30
2018-09-13T18:00:17.104Z,9.87
2018-09-13T18:02:44.921Z,7.70
2018-09-13T18:05:12.829Z,7.33
2018-09-13T18:07:40.700Z,6.47
2018-09-13T18:10:08.657Z,6.70
2018-09-13T18:12:36.545Z,7.57
2018-09-13T18:15:04.650Z,8.17
2018-09-13T18:17:32.492Z,5.90
2018-09-13T18:20:00.331Z,7.20
2018-09-13T18:22:28.206Z,7.67
2018-09-13T18:24:56.042Z,6.70
2018-09-13T18:27:25.545Z,9.50
2018-09-13T18:29:53.647Z,7.57
2018-09-13T18:32:21.617Z,6.23
2018-09-13T18:34:49.734Z,6.40
2018-09-13T18:37:17.941Z,5.90
2018-09-13T18:39:46.389Z,7.20
2018-09-13T18:42:15.560Z,7.27
2018-09-13T18:44:43.485Z,7.37
2018-09-13T18:47:11.400Z,7.93
2018-09-13T18:49:39.309Z,7.30
2018-09-13T18:55:41.190Z,7.47
2018-09-13T18:58:39.537Z,7.73
2018-09-13T19:07:45.126Z,8.90
2018-09-13T19:10:46.259Z,8.97
2018-09-13T19:13:49.161Z,9.20
2018-09-13T19:23:21.926Z,8.40
2018-09-13T19:26:25.725Z,8.70
2018-09-13T19:29:22.352Z,8.50
2018-09-13T19:32:43.759Z,9.07
2018-09-13T19:35:41.157Z,8.97
2018-09-13T19:39:00.332Z,9.10
2018-09-13T19:42:20.751Z,10.23
2018-09-13T19:45:18.453Z,9.50
2018-09-13T19:51:13.859Z,11.87
2018-09-13T19:53:41.657Z,11.00
2018-09-13T20:00:22.534Z,11.70
2018-09-13T20:02:50.360Z,11.77
2018-09-13T20:05:18.062Z,11.87
2018-09-13T20:07:45.765Z,11.30
2018-09-13T20:10:13.489Z,12.65
2018-09-13T20:12:41.205Z,11.20
2018-09-13T20:15:08.893Z,12.37
2018-09-13T20:17:36.703Z,11.13
2018-09-13T20:20:04.829Z,10.77
2018-09-13T20:22:32.513Z,11.67
2018-09-13T20:25:00.286Z,12.33
2018-09-13T20:27:27.993Z,11.47
2018-09-13T20:29:55.703Z,10.93
2018-09-13T20:32:23.440Z,11.30
2018-09-13T20:34:51.185Z,11.40
2018-09-13T20:37:18.819Z,11.97
2018-09-13T20:39:46.501Z,11.73
2018-09-13T20:42:14.337Z,10.87
2018-09-13T20:44:44.633Z,11.18
2018-09-13T20:47:12.303Z,12.20
2018-09-13T20:49:39.963Z,10.85
2018-09-13T20:52:07.585Z,11.80
2018-09-13T20:54:35.286Z,12.30
2018-09-13T20:57:02.957Z,12.17
2018-09-13T20:59:30.577Z,10.00
2018-09-13T21:01:58.301Z,11.22
2018-09-13T21:04:25.918Z,10.25
2018-09-13T21:06:53.575Z,10.57
2018-09-13T21:09:21.206Z,10.40
2018-09-13T21:11:48.965Z,10.63
2018-09-13T21:14:16.649Z,11.15
2018-09-13T21:16:44.345Z,10.67
2018-09-13T21:19:11.967Z,10.63
2018-09-13T21:21:39.636Z,9.30
2018-09-13T21:24:07.426Z,11.33
2018-09-13T21:26:35.055Z,9.93
2018-09-13T21:29:02.710Z,9.77
2018-09-13T21:31:30.330Z,9.63
2018-09-13T21:33:57.950Z,9.58
2018-09-13T21:36:25.785Z,11.27
2018-09-13T21:38:53.410Z,8.33
2018-09-13T21:41:21.036Z,10.20
2018-09-13T21:43:48.659Z,9.78
2018-09-13T21:46:16.291Z,11.27
2018-09-13T21:48:43.932Z,11.30
2018-09-13T21:51:11.590Z,11.22
2018-09-13T21:53:39.261Z,12.17
2018-09-13T21:56:07.103Z,12.10
2018-09-13T21:58:34.742Z,12.83
2018-09-13T22:01:02.384Z,12.70
2018-09-13T22:03:30.087Z,13.38
2018-09-13T22:05:57.724Z,13.37
2018-09-13T22:08:25.384Z,13.00
2018-09-13T22:10:53.006Z,14.00
2018-09-13T22:13:20.662Z,13.28
2018-09-13T22:15:48.294Z,12.43
2018-09-13T22:18:15.982Z,12.30
2018-09-13T22:20:43.666Z,12.82
2018-09-13T22:23:11.282Z,14.00
2018-09-13T22:25:38.968Z,11.40
2018-09-13T22:28:06.632Z,12.57
2018-09-13T22:30:34.264Z,12.88
2018-09-13T22:33:02.264Z,13.80
2018-09-13T22:35:29.849Z,11.28
2018-09-13T22:37:57.508Z,12.90
2018-09-13T22:40:25.176Z,12.93
2018-09-13T22:42:52.799Z,15.27
2018-09-13T22:45:20.438Z,15.40
2018-09-13T22:47:48.084Z,14.67
2018-09-13T22:50:15.744Z,15.53
2018-09-13T22:52:43.438Z,14.63
2018-09-13T22:55:11.108Z,14.00
2018-09-13T22:57:38.852Z,13.40
2018-09-13T23:00:06.800Z,13.70
2018-09-13T23:02:40.284Z,16.33
2018-09-13T23:05:07.988Z,15.60
2018-09-13T23:07:35.631Z,15.23
2018-09-13T23:10:03.297Z,16.27
2018-09-13T23:12:30.922Z,16.37
2018-09-13T23:14:58.587Z,18.37
2018-09-13T23:17:26.315Z,15.90
2018-09-13T23:19:53.938Z,17.57
2018-09-13T23:22:21.701Z,14.73
2018-09-13T23:24:49.353Z,17.03
2018-09-13T23:27:17.127Z,18.70
2018-09-13T23:29:44.815Z,18.53
2018-09-13T23:32:12.538Z,18.20
2018-09-13T23:34:40.271Z,17.30
2018-09-13T23:37:07.923Z,18.03
2018-09-13T23:39:35.946Z,19.17
2018-09-13T23:42:03.473Z,18.75
2018-09-13T23:44:31.133Z,18.65
2018-09-13T23:46:58.711Z,20.20
2018-09-13T23:49:26.319Z,19.33
2018-09-13T23:51:53.960Z,20.20
2018-09-13T23:54:21.636Z,20.62
2018-09-13T23:56:49.258Z,18.67
2018-09-13T23:59:17.064Z,24.30
